CA-0666 weather

Duplicate - Morrison Lake Seaplane Base
Gravenhurst, Ontario, Canada

Public forecast

Using degrees Celsius for public forecast. Weather courtesy of forecast.io.

Closest aviation weather report (METAR) to Duplicate - Morrison Lake Seaplane Base

Closest report is Muskoka Airport, 9.2 nm (17.0 km) NE. Retrieved 2020/01/23 07:00 UTC (23 minutes ago):

CYQA 230700Z AUTO 16005KT 9SM SCT140 SCT160 OVC190 M07/M09 A3020 RMK SLP244

Closest aviation forecast (TAF) to Duplicate - Morrison Lake Seaplane Base

Forecast is more than 6 hours old.

Closest forecast is Muskoka Airport, 9.2 nm (17.0 km) NE. Retrieved 2020/01/22 20:00 UTC (11 hours ago):

TAF CYQA 221938Z 2220/2303 16008KT P6SM FEW020 BKN210 RMK FCST BASED ON AUTO OBS NXT FCST WILL BE ISSUED AT 231245Z